createdAt,value
2022-12-08T00:01:34.477Z,13.40
2022-12-08T00:04:06.499Z,14.57
2022-12-08T00:06:58.569Z,13.33
2022-12-08T00:09:39.474Z,14.33
2022-12-08T00:12:13.632Z,14.77
2022-12-08T00:14:46.867Z,15.07
2022-12-08T00:17:16.694Z,14.83
2022-12-08T00:19:45.014Z,15.83
2022-12-08T00:22:13.484Z,15.40
2022-12-08T00:24:46.408Z,16.23
2022-12-08T00:27:18.008Z,15.23
2022-12-08T00:29:46.200Z,16.27
2022-12-08T00:32:13.574Z,15.87
2022-12-08T00:34:43.480Z,16.17
2022-12-08T00:37:10.613Z,17.30
2022-12-08T00:39:37.696Z,15.80
2022-12-08T00:42:14.174Z,15.83
2022-12-08T00:44:44.139Z,14.43
2022-12-08T00:47:13.064Z,15.13
2022-12-08T00:49:40.989Z,15.47
2022-12-08T00:52:08.370Z,14.53
2022-12-08T00:54:35.521Z,13.83
2022-12-08T00:57:03.097Z,13.70
2022-12-08T00:59:30.084Z,14.47
2022-12-08T01:02:00.088Z,14.73
2022-12-08T01:04:27.071Z,13.97
2022-12-08T01:06:53.965Z,13.37
2022-12-08T01:09:20.888Z,13.67
2022-12-08T01:11:47.972Z,13.53
2022-12-08T01:14:15.329Z,13.80
2022-12-08T01:16:43.258Z,13.07
2022-12-08T01:19:14.830Z,13.27
2022-12-08T01:21:43.705Z,12.63
2022-12-08T01:24:17.301Z,12.57
2022-12-08T01:26:44.847Z,11.37
2022-12-08T01:29:13.263Z,11.47
2022-12-08T01:31:46.172Z,12.37
2022-12-08T01:34:13.414Z,11.37
2022-12-08T01:36:44.472Z,11.63
2022-12-08T01:39:16.883Z,12.13
2022-12-08T01:41:45.928Z,12.23
2022-12-08T01:44:12.845Z,11.87
2022-12-08T01:46:45.671Z,12.20
2022-12-08T01:49:36.321Z,12.53
2022-12-08T01:52:17.332Z,11.67
2022-12-08T01:55:03.442Z,11.77
2022-12-08T01:58:00.014Z,10.77
2022-12-08T02:00:26.947Z,11.60
2022-12-08T02:02:59.081Z,11.10
2022-12-08T02:05:31.074Z,10.50
2022-12-08T02:08:01.329Z,11.57
2022-12-08T02:10:32.386Z,10.80
2022-12-08T02:13:00.949Z,11.33
2022-12-08T02:15:53.223Z,10.00
2022-12-08T02:18:57.705Z,10.33
2022-12-08T02:21:58.078Z,9.63
2022-12-08T02:25:03.411Z,9.03
2022-12-08T02:27:46.550Z,9.20
2022-12-08T02:30:25.160Z,8.60
2022-12-08T02:33:25.332Z,8.50
2022-12-08T02:36:20.656Z,7.60
2022-12-08T02:39:10.211Z,7.60
2022-12-08T02:42:02.096Z,7.33
2022-12-08T02:44:57.229Z,7.10
2022-12-08T02:47:28.059Z,7.10
2022-12-08T02:49:58.964Z,8.23
2022-12-08T02:52:25.739Z,7.17
2022-12-08T02:54:59.930Z,8.00
2022-12-08T02:58:18.089Z,9.10
2022-12-08T03:01:42.372Z,8.23
2022-12-08T03:04:31.462Z,8.53
2022-12-08T03:07:08.305Z,8.93
2022-12-08T03:10:05.810Z,9.00
2022-12-08T03:13:02.527Z,7.87
2022-12-08T03:15:31.853Z,8.17
2022-12-08T03:18:00.825Z,9.40
2022-12-08T03:20:32.867Z,9.37
2022-12-08T03:23:04.857Z,9.70
2022-12-08T03:25:38.581Z,10.70
2022-12-08T03:28:06.267Z,11.77
2022-12-08T03:30:40.452Z,11.33
2022-12-08T03:33:18.574Z,10.50
2022-12-08T03:35:47.169Z,12.53
2022-12-08T03:38:17.088Z,13.00
2022-12-08T03:41:04.928Z,14.20
2022-12-08T03:43:31.843Z,15.13
2022-12-08T03:45:58.845Z,15.77
2022-12-08T03:48:25.739Z,17.67
2022-12-08T03:50:52.631Z,18.23
2022-12-08T03:53:19.566Z,19.67
2022-12-08T03:55:46.502Z,19.60
2022-12-08T03:58:13.377Z,19.83
2022-12-08T04:00:40.314Z,18.87
2022-12-08T04:03:07.249Z,18.40
2022-12-08T04:05:34.111Z,18.93
2022-12-08T04:08:01.206Z,18.27
2022-12-08T04:10:28.119Z,17.83
2022-12-08T04:12:56.531Z,17.90
2022-12-08T04:15:23.950Z,19.27
2022-12-08T04:17:50.830Z,18.43
2022-12-08T04:20:17.700Z,17.50
2022-12-08T04:22:44.583Z,17.50
2022-12-08T04:25:11.676Z,15.97
2022-12-08T04:27:38.810Z,14.57
2022-12-08T04:30:06.934Z,13.43
2022-12-08T04:32:34.065Z,13.23
2022-12-08T04:35:00.928Z,12.57
2022-12-08T04:37:29.123Z,11.03
2022-12-08T04:39:56.034Z,11.13
2022-12-08T04:42:22.864Z,11.57
2022-12-08T04:44:49.866Z,11.07
2022-12-08T04:47:16.808Z,10.97
2022-12-08T04:49:43.841Z,10.00
2022-12-08T04:52:10.765Z,9.73
2022-12-08T04:54:37.660Z,9.10
2022-12-08T04:57:04.860Z,7.87
2022-12-08T04:59:32.693Z,6.93
2022-12-08T05:01:59.810Z,7.23
2022-12-08T05:04:26.945Z,6.67
2022-12-08T05:06:53.844Z,7.23
2022-12-08T05:09:20.761Z,6.57
2022-12-08T05:11:49.256Z,6.70
2022-12-08T05:14:18.736Z,6.90
2022-12-08T05:16:47.862Z,7.03
2022-12-08T05:19:16.354Z,7.33
2022-12-08T05:21:44.232Z,8.30
2022-12-08T05:24:11.248Z,9.67
2022-12-08T05:26:38.116Z,8.87
2022-12-08T05:29:05.245Z,8.40
2022-12-08T05:31:32.192Z,9.37
2022-12-08T05:34:02.940Z,9.83
2022-12-08T05:36:30.436Z,8.70
2022-12-08T05:38:58.395Z,7.50
2022-12-08T05:41:25.370Z,7.77
2022-12-08T05:43:52.218Z,6.90
2022-12-08T05:46:19.625Z,6.13
2022-12-08T05:48:50.552Z,5.80
2022-12-08T05:51:22.116Z,5.23
2022-12-08T05:53:50.796Z,4.30
2022-12-08T05:56:18.879Z,3.70
2022-12-08T05:58:46.966Z,3.83
2022-12-08T06:01:31.752Z,3.60
2022-12-08T06:04:01.329Z,3.43
2022-12-08T06:06:29.154Z,2.90
2022-12-08T06:08:56.069Z,3.07
2022-12-08T06:11:30.363Z,3.00
2022-12-08T06:13:57.890Z,2.97
2022-12-08T06:16:27.353Z,3.43
2022-12-08T06:18:55.815Z,4.47
2022-12-08T06:21:24.438Z,4.80
2022-12-08T06:23:55.436Z,5.20
2022-12-08T06:26:23.326Z,6.37
2022-12-08T06:28:50.954Z,6.80
2022-12-08T06:31:21.833Z,7.37
2022-12-08T06:33:49.405Z,7.83
2022-12-08T06:36:19.495Z,8.20
2022-12-08T06:38:47.386Z,7.80
2022-12-08T06:41:16.999Z,8.87
2022-12-08T06:43:44.582Z,9.70
2022-12-08T06:46:17.868Z,10.23
2022-12-08T06:48:45.691Z,12.30
2022-12-08T06:51:17.089Z,13.70
2022-12-08T06:53:45.239Z,15.80
2022-12-08T06:56:14.325Z,14.37
2022-12-08T06:58:41.290Z,14.43
2022-12-08T07:01:14.263Z,13.97
2022-12-08T07:03:43.632Z,14.37
2022-12-08T07:06:18.326Z,14.17
2022-12-08T07:08:45.351Z,14.00
2022-12-08T07:11:18.107Z,14.67
2022-12-08T07:13:48.521Z,13.67
2022-12-08T07:16:15.440Z,13.57
2022-12-08T07:18:43.906Z,14.23
2022-12-08T07:21:14.941Z,13.30
2022-12-08T07:23:45.017Z,13.90
2022-12-08T07:26:13.620Z,13.23
2022-12-08T07:28:42.206Z,13.87
2022-12-08T07:31:22.257Z,13.47
2022-12-08T07:33:50.350Z,12.17
2022-12-08T07:36:17.790Z,12.13
2022-12-08T07:38:45.090Z,12.20
2022-12-08T07:41:18.033Z,12.30
2022-12-08T07:43:45.448Z,13.87
2022-12-08T07:46:14.679Z,13.57
2022-12-08T07:48:42.425Z,13.40
2022-12-08T07:51:11.791Z,12.63
2022-12-08T07:53:42.803Z,12.50
2022-12-08T07:56:12.710Z,13.30
2022-12-08T07:58:40.625Z,12.50
2022-12-08T08:01:28.766Z,13.63
2022-12-08T08:04:01.739Z,12.30
2022-12-08T08:06:28.879Z,11.77
2022-12-08T08:08:55.740Z,13.03
2022-12-08T08:11:22.967Z,13.27
2022-12-08T08:13:51.420Z,12.30
2022-12-08T08:16:19.827Z,12.40
2022-12-08T08:18:49.836Z,11.77
2022-12-08T08:24:06.241Z,12.10
2022-12-08T08:26:33.141Z,13.17
2022-12-08T08:29:00.156Z,13.50
2022-12-08T08:31:27.365Z,13.17
2022-12-08T08:33:56.338Z,12.87
2022-12-08T08:36:23.936Z,11.77
2022-12-08T08:38:54.728Z,12.70
2022-12-08T08:41:21.565Z,12.20
2022-12-08T08:43:48.467Z,13.03
2022-12-08T08:46:15.454Z,13.47
2022-12-08T08:48:42.564Z,14.10
2022-12-08T08:51:13.515Z,13.97
2022-12-08T08:53:41.729Z,15.87
2022-12-08T08:56:20.534Z,16.50
2022-12-08T08:58:49.548Z,15.57
2022-12-08T09:01:25.676Z,14.77
2022-12-08T09:03:53.496Z,16.33
2022-12-08T09:06:21.216Z,16.27
2022-12-08T09:08:48.847Z,15.57
2022-12-08T09:11:18.593Z,15.83
2022-12-08T09:13:49.648Z,16.83
2022-12-08T09:16:18.020Z,16.77
2022-12-08T09:18:45.199Z,17.13
2022-12-08T09:21:20.197Z,17.60
2022-12-08T09:23:47.208Z,18.30
2022-12-08T09:26:14.267Z,18.07
2022-12-08T09:28:46.343Z,16.93
2022-12-08T09:31:18.679Z,17.33
2022-12-08T09:33:46.168Z,18.20
2022-12-08T09:36:13.257Z,18.73
2022-12-08T09:38:40.963Z,19.13
2022-12-08T09:41:19.775Z,18.97
2022-12-08T09:44:31.597Z,19.23
2022-12-08T09:47:02.278Z,19.77
2022-12-08T09:49:47.060Z,19.17
2022-12-08T09:52:29.570Z,19.83
2022-12-08T09:55:04.593Z,17.93
2022-12-08T09:57:32.024Z,19.23
2022-12-08T10:00:06.379Z,18.40
2022-12-08T10:02:39.713Z,18.47
2022-12-08T10:05:07.312Z,17.53
2022-12-08T10:07:49.089Z,18.97
2022-12-08T10:10:41.332Z,17.77
2022-12-08T10:13:46.812Z,16.67
2022-12-08T10:16:36.737Z,15.27
2022-12-08T10:19:21.671Z,15.07
2022-12-08T10:21:49.128Z,15.13
2022-12-08T10:24:40.815Z,14.30
2022-12-08T10:27:13.338Z,12.00
2022-12-08T10:29:41.168Z,12.33
2022-12-08T10:32:22.717Z,12.03
2022-12-08T10:35:07.514Z,11.60
2022-12-08T10:37:34.945Z,11.97
2022-12-08T10:40:14.320Z,12.63
2022-12-08T10:42:56.404Z,11.97
2022-12-08T10:45:44.637Z,11.73
2022-12-08T10:48:24.211Z,10.53
2022-12-08T10:50:56.749Z,11.37
2022-12-08T10:53:30.119Z,12.57
2022-12-08T10:56:03.048Z,12.40
2022-12-08T10:58:35.806Z,12.83
2022-12-08T11:01:27.947Z,11.40
2022-12-08T11:04:00.595Z,12.07
2022-12-08T11:06:30.225Z,12.27
2022-12-08T11:09:15.073Z,12.07
2022-12-08T11:11:48.980Z,12.63
2022-12-08T11:14:31.098Z,11.67
2022-12-08T11:17:16.598Z,10.93
2022-12-08T11:19:57.320Z,11.03
2022-12-08T11:22:40.028Z,11.37
2022-12-08T11:25:17.902Z,11.03
2022-12-08T11:27:48.511Z,10.73
2022-12-08T11:30:25.868Z,10.43
2022-12-08T11:33:13.804Z,10.40
2022-12-08T11:35:45.637Z,9.83
2022-12-08T11:38:22.435Z,10.27
2022-12-08T11:41:17.807Z,9.77
2022-12-08T11:44:21.841Z,9.50
2022-12-08T11:47:36.831Z,8.77
2022-12-08T11:50:58.851Z,9.20
2022-12-08T11:53:39.442Z,8.67
2022-12-08T11:56:34.756Z,9.47
2022-12-08T11:59:26.437Z,9.00
2022-12-08T12:01:54.185Z,7.70
2022-12-08T12:04:33.269Z,9.17
2022-12-08T12:07:47.044Z,9.57
2022-12-08T12:10:43.164Z,9.20
2022-12-08T12:13:27.788Z,11.30
2022-12-08T12:16:16.170Z,12.37
2022-12-08T12:18:55.815Z,13.53
2022-12-08T12:21:50.138Z,13.83
2022-12-08T12:24:27.557Z,13.90
2022-12-08T12:27:06.640Z,14.37
2022-12-08T12:29:38.182Z,13.17
2022-12-08T12:32:09.131Z,14.60
2022-12-08T12:34:48.770Z,14.40
2022-12-08T12:37:24.748Z,15.53
2022-12-08T12:40:02.718Z,14.77
2022-12-08T12:42:55.907Z,11.17
2022-12-08T12:45:34.131Z,10.60
2022-12-08T12:48:00.975Z,8.40
2022-12-08T12:50:55.159Z,8.83
2022-12-08T12:53:21.967Z,7.03
2022-12-08T12:55:58.820Z,7.20
2022-12-08T12:58:29.457Z,7.40
2022-12-08T13:01:11.783Z,7.43
2022-12-08T13:03:48.054Z,7.77
2022-12-08T13:06:24.055Z,7.10
2022-12-08T13:08:56.227Z,8.00
2022-12-08T13:11:25.007Z,7.80
2022-12-08T13:14:03.601Z,7.57
2022-12-08T13:16:38.605Z,6.80
2022-12-08T13:19:15.750Z,6.70
2022-12-08T13:21:42.886Z,7.37
2022-12-08T13:24:19.901Z,6.80
2022-12-08T13:26:51.114Z,6.30
2022-12-08T13:29:26.336Z,6.07
2022-12-08T13:31:59.349Z,5.67
2022-12-08T13:34:30.496Z,5.93
2022-12-08T13:37:15.282Z,6.27
2022-12-08T13:39:51.351Z,5.13
2022-12-08T13:42:48.011Z,5.00
2022-12-08T13:45:48.626Z,4.40
2022-12-08T13:49:03.342Z,4.67
2022-12-08T13:53:34.132Z,3.93
2022-12-08T13:57:28.597Z,3.97
2022-12-08T14:00:16.724Z,3.87
2022-12-08T14:02:48.551Z,4.10
2022-12-08T14:05:29.804Z,3.83
2022-12-08T14:08:58.382Z,2.67
2022-12-08T14:11:34.271Z,3.40
2022-12-08T14:14:32.810Z,3.10
2022-12-08T14:17:13.528Z,3.33
2022-12-08T14:19:45.817Z,2.70
2022-12-08T14:22:21.749Z,2.43
2022-12-08T14:24:52.880Z,2.47
2022-12-08T14:27:27.076Z,2.33
2022-12-08T14:29:56.907Z,2.80
2022-12-08T14:32:28.374Z,2.97
2022-12-08T14:35:10.381Z,2.90
2022-12-08T14:37:50.687Z,2.83
2022-12-08T14:40:38.088Z,2.97
2022-12-08T14:43:07.692Z,2.83
2022-12-08T14:45:40.480Z,3.17
2022-12-08T14:48:28.450Z,3.17
2022-12-08T14:51:04.434Z,3.70
2022-12-08T14:53:37.752Z,4.80
2022-12-08T14:56:33.466Z,5.80
2022-12-08T14:59:27.202Z,6.10
2022-12-08T15:02:24.438Z,4.90
2022-12-08T15:05:17.135Z,4.90
2022-12-08T15:07:54.075Z,5.50
2022-12-08T15:10:27.296Z,6.07
2022-12-08T15:13:10.099Z,6.10
2022-12-08T15:15:57.949Z,5.87
2022-12-08T15:18:40.671Z,6.63
2022-12-08T15:21:12.767Z,6.60
2022-12-08T15:23:44.840Z,6.90
2022-12-08T15:26:40.708Z,6.70
2022-12-08T15:29:33.687Z,6.27
2022-12-08T15:32:02.173Z,5.50
2022-12-08T15:34:29.091Z,5.63
2022-12-08T15:36:56.010Z,5.10
2022-12-08T15:39:37.384Z,4.23
2022-12-08T15:42:11.888Z,3.93
2022-12-08T15:44:39.603Z,3.40
2022-12-08T15:47:15.367Z,3.40
2022-12-08T15:49:44.132Z,3.00
2022-12-08T15:52:24.810Z,3.20
2022-12-08T15:54:51.777Z,3.20
2022-12-08T15:58:04.454Z,3.17
2022-12-08T16:00:51.640Z,3.00
2022-12-08T16:04:19.970Z,3.47
2022-12-08T16:09:42.446Z,3.57
2022-12-08T16:13:27.337Z,4.00
2022-12-08T16:18:24.670Z,4.47
2022-12-08T16:21:09.560Z,3.83
2022-12-08T16:23:43.479Z,4.33
2022-12-08T16:27:35.211Z,4.43
2022-12-08T16:29:17.722Z,4.47
2022-12-08T16:31:44.733Z,4.57
2022-12-08T16:34:11.609Z,4.43
2022-12-08T16:36:38.571Z,4.70
2022-12-08T16:39:05.593Z,5.13
2022-12-08T16:41:51.374Z,5.27
2022-12-08T16:44:18.246Z,4.63
2022-12-08T16:46:46.534Z,5.17
2022-12-08T16:49:15.439Z,5.93
2022-12-08T16:51:43.697Z,5.53
2022-12-08T16:54:10.885Z,5.67
2022-12-08T16:56:37.896Z,5.40
2022-12-08T16:59:04.796Z,5.07
2022-12-08T17:01:32.080Z,5.07
2022-12-08T17:04:30.930Z,5.30
2022-12-08T17:06:46.419Z,5.90
2022-12-08T17:09:13.510Z,5.60
2022-12-08T17:11:43.390Z,6.27
2022-12-08T17:14:13.230Z,6.17
2022-12-08T17:16:41.118Z,6.13
2022-12-08T17:19:08.417Z,7.23
2022-12-08T17:21:35.707Z,8.43
2022-12-08T17:24:02.707Z,7.90
2022-12-08T17:26:29.591Z,8.07
2022-12-08T17:29:01.364Z,8.83
2022-12-08T17:31:31.268Z,10.37
2022-12-08T17:34:06.150Z,9.70
2022-12-08T17:36:33.002Z,9.33
2022-12-08T17:39:00.961Z,10.17
2022-12-08T17:41:29.571Z,9.67
2022-12-08T17:43:56.978Z,9.90
2022-12-08T17:46:24.459Z,9.93
2022-12-08T17:48:52.022Z,10.30
2022-12-08T17:51:19.211Z,10.00
2022-12-08T17:53:46.126Z,10.30
2022-12-08T17:56:21.535Z,10.87
2022-12-08T17:58:52.836Z,11.17
2022-12-08T18:01:23.132Z,11.40
2022-12-08T18:03:50.484Z,11.97
2022-12-08T18:06:17.869Z,10.77
2022-12-08T18:08:45.076Z,11.43
2022-12-08T18:11:16.768Z,11.57
2022-12-08T18:13:45.506Z,11.13
2022-12-08T18:16:15.132Z,11.63
2022-12-08T18:18:42.296Z,11.03
2022-12-08T18:21:09.950Z,11.27
2022-12-08T18:23:42.570Z,10.73
2022-12-08T18:26:12.551Z,11.20
2022-12-08T18:28:39.990Z,10.83
2022-12-08T18:31:13.861Z,11.40
2022-12-08T18:33:43.608Z,11.90
2022-12-08T18:36:15.601Z,10.97
2022-12-08T18:38:42.601Z,10.07
2022-12-08T18:41:13.776Z,10.23
2022-12-08T18:43:41.089Z,10.17
2022-12-08T18:46:11.611Z,10.20
2022-12-08T18:48:41.631Z,10.63
2022-12-08T18:51:14.710Z,10.47
2022-12-08T18:53:42.538Z,9.90
2022-12-08T18:56:19.677Z,9.50
2022-12-08T18:58:46.706Z,9.73
2022-12-08T19:01:14.668Z,10.10
2022-12-08T19:03:52.785Z,9.53
2022-12-08T19:06:29.892Z,10.27
2022-12-08T19:08:57.328Z,9.97
2022-12-08T19:11:27.858Z,10.00
2022-12-08T19:13:55.613Z,9.70
2022-12-08T19:16:23.681Z,9.43
2022-12-08T19:18:51.044Z,9.73
2022-12-08T19:21:18.106Z,10.07
2022-12-08T19:23:45.152Z,9.90
2022-12-08T19:26:12.379Z,8.53
2022-12-08T19:28:40.986Z,9.43
2022-12-08T19:31:10.094Z,9.87
2022-12-08T19:33:38.605Z,8.67
2022-12-08T19:36:14.110Z,9.13
2022-12-08T19:38:59.893Z,9.10
2022-12-08T19:41:45.121Z,8.33
2022-12-08T19:44:26.534Z,8.50
2022-12-08T19:46:53.442Z,8.33
2022-12-08T19:49:20.416Z,8.63
2022-12-08T19:51:48.126Z,7.87
2022-12-08T19:54:14.976Z,9.23
2022-12-08T19:56:41.815Z,9.23
2022-12-08T19:59:08.627Z,8.23
2022-12-08T20:01:37.534Z,8.40
2022-12-08T20:04:05.001Z,8.70
2022-12-08T20:06:32.277Z,8.90
2022-12-08T20:09:00.362Z,9.00
2022-12-08T20:11:27.291Z,9.37
2022-12-08T20:13:56.186Z,9.50
2022-12-08T20:16:24.104Z,8.60
2022-12-08T20:18:51.063Z,8.80
2022-12-08T20:21:18.199Z,9.03
2022-12-08T20:23:46.218Z,9.00
2022-12-08T20:26:19.753Z,8.33
2022-12-08T20:28:52.824Z,8.57
2022-12-08T20:31:26.448Z,8.63
2022-12-08T20:33:56.718Z,9.50
2022-12-08T20:36:24.174Z,10.10
2022-12-08T20:38:53.561Z,9.40
2022-12-08T20:41:23.216Z,9.30
2022-12-08T20:43:51.081Z,9.07
2022-12-08T20:46:20.054Z,9.77
2022-12-08T20:48:48.870Z,9.00
2022-12-08T20:51:19.670Z,9.93
2022-12-08T20:53:47.603Z,10.40
2022-12-08T20:56:20.546Z,10.80
2022-12-08T20:58:49.189Z,11.13
2022-12-08T21:01:20.211Z,11.20
2022-12-08T21:03:49.314Z,11.37
2022-12-08T21:06:16.631Z,10.63
2022-12-08T21:08:43.838Z,12.17
2022-12-08T21:11:11.508Z,11.57
2022-12-08T21:13:38.781Z,13.17
2022-12-08T21:16:06.707Z,12.17
2022-12-08T21:18:39.231Z,11.73
2022-12-08T21:21:13.007Z,12.90
2022-12-08T21:23:42.150Z,13.10
2022-12-08T21:26:23.234Z,12.87
2022-12-08T21:28:50.646Z,13.67
2022-12-08T21:31:21.553Z,13.50
2022-12-08T21:33:49.239Z,14.10
2022-12-08T21:36:20.069Z,14.40
2022-12-08T21:38:48.456Z,14.30
2022-12-08T21:41:42.061Z,15.23
2022-12-08T21:44:11.353Z,15.53
2022-12-08T21:46:39.013Z,15.53
2022-12-08T21:49:06.110Z,14.83
2022-12-08T21:51:35.092Z,15.80
2022-12-08T21:54:02.277Z,16.20
2022-12-08T21:56:29.287Z,16.17
2022-12-08T21:58:56.533Z,15.00
2022-12-08T22:01:23.530Z,14.90
2022-12-08T22:03:50.765Z,16.27
2022-12-08T22:06:17.708Z,15.50
2022-12-08T22:08:45.047Z,16.50
2022-12-08T22:11:12.856Z,17.10
2022-12-08T22:13:42.127Z,17.03
2022-12-08T22:16:12.590Z,17.60
2022-12-08T22:18:39.705Z,17.30
2022-12-08T22:21:16.777Z,16.63
2022-12-08T22:23:44.548Z,15.90
2022-12-08T22:26:12.707Z,15.03
2022-12-08T22:28:42.613Z,16.30
2022-12-08T22:31:16.686Z,16.50
2022-12-08T22:33:44.307Z,15.07
2022-12-08T22:36:18.989Z,14.87
2022-12-08T22:38:46.919Z,14.93
2022-12-08T22:41:14.412Z,14.53
2022-12-08T22:43:41.999Z,14.70
2022-12-08T22:46:14.334Z,13.83
2022-12-08T22:48:41.611Z,15.27
2022-12-08T22:51:09.226Z,15.17
2022-12-08T22:53:36.998Z,14.87
2022-12-08T22:56:10.091Z,15.87
2022-12-08T22:58:38.693Z,15.00
2022-12-08T23:01:07.568Z,15.43
2022-12-08T23:03:35.583Z,15.80
2022-12-08T23:06:03.067Z,16.47
2022-12-08T23:08:30.160Z,15.40
2022-12-08T23:10:58.002Z,16.17
2022-12-08T23:13:24.905Z,15.93
2022-12-08T23:15:51.821Z,15.97
2022-12-08T23:18:19.932Z,16.97
2022-12-08T23:20:47.608Z,16.07
2022-12-08T23:23:15.437Z,16.97
2022-12-08T23:25:43.495Z,15.57
2022-12-08T23:28:11.288Z,16.50
2022-12-08T23:30:41.839Z,16.87
2022-12-08T23:33:09.284Z,16.40
2022-12-08T23:35:36.346Z,16.73
2022-12-08T23:38:04.217Z,17.10
2022-12-08T23:40:31.105Z,17.37
2022-12-08T23:42:58.200Z,16.40
2022-12-08T23:45:25.325Z,16.27
2022-12-08T23:47:52.283Z,15.77
2022-12-08T23:50:19.599Z,16.67
2022-12-08T23:52:46.764Z,16.77
2022-12-08T23:55:13.642Z,15.93
2022-12-08T23:57:40.537Z,16.77
